sensor_id;sensor_type;location;lat;lon;timestamp;pressure;altitude;pressure_sealevel;temperature;humidity
10720;BME280;5411;58.386;15.560;2022-10-31T00:00:59;100672.50;;;7.44;100.00
10720;BME280;5411;58.386;15.560;2022-10-31T00:03:28;100665.84;;;7.40;100.00
10720;BME280;5411;58.386;15.560;2022-10-31T00:05:56;100672.34;;;7.37;100.00
10720;BME280;5411;58.386;15.560;2022-10-31T00:08:24;100671.03;;;7.33;100.00
10720;BME280;5411;58.386;15.560;2022-10-31T00:10:55;100677.56;;;7.31;100.00
10720;BME280;5411;58.386;15.560;2022-10-31T00:13:23;100684.88;;;7.29;100.00
10720;BME280;5411;58.386;15.560;2022-10-31T00:15:51;100688.06;;;7.24;100.00
10720;BME280;5411;58.386;15.560;2022-10-31T00:18:20;100687.22;;;7.24;100.00
10720;BME280;5411;58.386;15.560;2022-10-31T00:20:58;100681.91;;;7.24;100.00
10720;BME280;5411;58.386;15.560;2022-10-31T00:23:26;100683.38;;;7.26;100.00
10720;BME280;5411;58.386;15.560;2022-10-31T00:26:00;100683.88;;;7.30;100.00
10720;BME280;5411;58.386;15.560;2022-10-31T00:28:36;100686.16;;;7.33;100.00
10720;BME280;5411;58.386;15.560;2022-10-31T00:31:08;100685.50;;;7.39;100.00
10720;BME280;5411;58.386;15.560;2022-10-31T00:33:38;100690.13;;;7.45;100.00
10720;BME280;5411;58.386;15.560;2022-10-31T00:36:11;100691.75;;;7.54;100.00
10720;BME280;5411;58.386;15.560;2022-10-31T00:38:40;100695.34;;;7.61;100.00
10720;BME280;5411;58.386;15.560;2022-10-31T00:41:09;100690.81;;;7.70;100.00
10720;BME280;5411;58.386;15.560;2022-10-31T00:43:37;100690.75;;;7.78;100.00
10720;BME280;5411;58.386;15.560;2022-10-31T00:46:05;100695.00;;;7.87;100.00
10720;BME280;5411;58.386;15.560;2022-10-31T00:48:33;100693.50;;;7.93;100.00
10720;BME280;5411;58.386;15.560;2022-10-31T00:51:01;100703.06;;;8.02;100.00
10720;BME280;5411;58.386;15.560;2022-10-31T00:53:30;100692.38;;;8.10;100.00
10720;BME280;5411;58.386;15.560;2022-10-31T00:55:59;100693.31;;;8.17;100.00
10720;BME280;5411;58.386;15.560;2022-10-31T00:58:27;100693.59;;;8.22;100.00
10720;BME280;5411;58.386;15.560;2022-10-31T01:00:55;100697.19;;;8.29;100.00
10720;BME280;5411;58.386;15.560;2022-10-31T01:03:25;100690.34;;;8.35;100.00
10720;BME280;5411;58.386;15.560;2022-10-31T01:05:58;100686.69;;;8.36;100.00
10720;BME280;5411;58.386;15.560;2022-10-31T01:08:27;100691.47;;;8.40;100.00
10720;BME280;5411;58.386;15.560;2022-10-31T01:11:02;100694.44;;;8.45;100.00
10720;BME280;5411;58.386;15.560;2022-10-31T01:13:31;100683.88;;;8.52;100.00
10720;BME280;5411;58.386;15.560;2022-10-31T01:16:00;100684.31;;;8.55;100.00
10720;BME280;5411;58.386;15.560;2022-10-31T01:18:28;100675.59;;;8.62;100.00
10720;BME280;5411;58.386;15.560;2022-10-31T01:20:58;100683.88;;;8.67;100.00
10720;BME280;5411;58.386;15.560;2022-10-31T01:23:27;100684.34;;;8.70;100.00
10720;BME280;5411;58.386;15.560;2022-10-31T01:26:06;100684.44;;;8.77;100.00
10720;BME280;5411;58.386;15.560;2022-10-31T01:28:36;100675.88;;;8.81;100.00
10720;BME280;5411;58.386;15.560;2022-10-31T01:31:11;100677.19;;;8.85;100.00
10720;BME280;5411;58.386;15.560;2022-10-31T01:33:39;100681.16;;;8.89;100.00
10720;BME280;5411;58.386;15.560;2022-10-31T01:36:12;100683.88;;;8.96;100.00
10720;BME280;5411;58.386;15.560;2022-10-31T01:38:41;100681.50;;;9.01;100.00
10720;BME280;5411;58.386;15.560;2022-10-31T01:41:12;100673.56;;;9.08;100.00
10720;BME280;5411;58.386;15.560;2022-10-31T01:43:51;100672.03;;;9.13;100.00
10720;BME280;5411;58.386;15.560;2022-10-31T01:46:23;100665.91;;;9.19;100.00
10720;BME280;5411;58.386;15.560;2022-10-31T01:48:53;100672.56;;;9.23;100.00
10720;BME280;5411;58.386;15.560;2022-10-31T01:51:25;100675.88;;;9.25;100.00
10720;BME280;5411;58.386;15.560;2022-10-31T01:53:56;100677.16;;;9.29;100.00
10720;BME280;5411;58.386;15.560;2022-10-31T01:56:27;100666.91;;;9.33;100.00
10720;BME280;5411;58.386;15.560;2022-10-31T01:58:56;100670.69;;;9.39;100.00
10720;BME280;5411;58.386;15.560;2022-10-31T02:01:27;100672.81;;;9.43;100.00
10720;BME280;5411;58.386;15.560;2022-10-31T02:03:56;100662.56;;;9.47;100.00
10720;BME280;5411;58.386;15.560;2022-10-31T02:06:32;100671.41;;;9.47;100.00
10720;BME280;5411;58.386;15.560;2022-10-31T02:09:02;100665.22;;;9.47;100.00
10720;BME280;5411;58.386;15.560;2022-10-31T02:11:36;100674.72;;;9.49;100.00
10720;BME280;5411;58.386;15.560;2022-10-31T02:14:04;100674.34;;;9.52;100.00
10720;BME280;5411;58.386;15.560;2022-10-31T02:16:32;100671.47;;;9.54;100.00
10720;BME280;5411;58.386;15.560;2022-10-31T02:19:00;100669.69;;;9.61;100.00
10720;BME280;5411;58.386;15.560;2022-10-31T02:21:34;100676.59;;;9.70;100.00
10720;BME280;5411;58.386;15.560;2022-10-31T02:27:26;100673.16;;;9.76;100.00
10720;BME280;5411;58.386;15.560;2022-10-31T02:30:05;100670.47;;;9.76;100.00
10720;BME280;5411;58.386;15.560;2022-10-31T02:32:47;100668.47;;;9.78;100.00
10720;BME280;5411;58.386;15.560;2022-10-31T02:35:28;100664.59;;;9.81;100.00
10720;BME280;5411;58.386;15.560;2022-10-31T02:38:07;100669.34;;;9.85;100.00
10720;BME280;5411;58.386;15.560;2022-10-31T02:40:45;100673.66;;;9.86;100.00
10720;BME280;5411;58.386;15.560;2022-10-31T02:43:19;100674.94;;;9.90;100.00
10720;BME280;5411;58.386;15.560;2022-10-31T02:45:53;100667.38;;;9.94;100.00
10720;BME280;5411;58.386;15.560;2022-10-31T02:48:42;100677.09;;;10.01;100.00
10720;BME280;5411;58.386;15.560;2022-10-31T02:51:15;100678.84;;;10.09;100.00
10720;BME280;5411;58.386;15.560;2022-10-31T02:53:44;100667.03;;;10.18;100.00
10720;BME280;5411;58.386;15.560;2022-10-31T02:56:14;100671.19;;;10.27;100.00
10720;BME280;5411;58.386;15.560;2022-10-31T02:58:46;100676.25;;;10.37;100.00
10720;BME280;5411;58.386;15.560;2022-10-31T03:04:36;100659.50;;;10.56;100.00
10720;BME280;5411;58.386;15.560;2022-10-31T03:07:18;100661.81;;;10.66;100.00
10720;BME280;5411;58.386;15.560;2022-10-31T03:09:54;100650.97;;;10.74;100.00
10720;BME280;5411;58.386;15.560;2022-10-31T03:12:28;100651.63;;;10.83;100.00
10720;BME280;5411;58.386;15.560;2022-10-31T03:15:08;100651.50;;;10.91;100.00
10720;BME280;5411;58.386;15.560;2022-10-31T03:17:47;100653.34;;;10.97;100.00
10720;BME280;5411;58.386;15.560;2022-10-31T03:20:23;100664.94;;;11.04;100.00
10720;BME280;5411;58.386;15.560;2022-10-31T03:22:54;100659.81;;;11.09;100.00
10720;BME280;5411;58.386;15.560;2022-10-31T03:25:23;100662.75;;;11.21;100.00
10720;BME280;5411;58.386;15.560;2022-10-31T03:27:53;100655.56;;;11.28;100.00
10720;BME280;5411;58.386;15.560;2022-10-31T03:30:21;100655.81;;;11.39;100.00
10720;BME280;5411;58.386;15.560;2022-10-31T03:32:52;100659.13;;;11.48;100.00
10720;BME280;5411;58.386;15.560;2022-10-31T03:35:25;100656.50;;;11.55;100.00
10720;BME280;5411;58.386;15.560;2022-10-31T03:37:56;100660.00;;;11.62;100.00
10720;BME280;5411;58.386;15.560;2022-10-31T03:40:35;100649.28;;;11.62;100.00
10720;BME280;5411;58.386;15.560;2022-10-31T03:43:08;100658.56;;;11.72;100.00
10720;BME280;5411;58.386;15.560;2022-10-31T03:45:41;100655.97;;;11.79;100.00
10720;BME280;5411;58.386;15.560;2022-10-31T03:48:09;100658.25;;;11.82;100.00
10720;BME280;5411;58.386;15.560;2022-10-31T03:50:52;100654.91;;;11.87;100.00
10720;BME280;5411;58.386;15.560;2022-10-31T03:53:27;100661.53;;;11.91;100.00
10720;BME280;5411;58.386;15.560;2022-10-31T03:56:02;100655.56;;;11.95;100.00
10720;BME280;5411;58.386;15.560;2022-10-31T03:58:37;100656.19;;;11.97;100.00
10720;BME280;5411;58.386;15.560;2022-10-31T04:01:09;100653.91;;;12.01;100.00
10720;BME280;5411;58.386;15.560;2022-10-31T04:03:39;100650.00;;;12.03;100.00
10720;BME280;5411;58.386;15.560;2022-10-31T04:06:11;100654.97;;;12.06;100.00
10720;BME280;5411;58.386;15.560;2022-10-31T04:08:45;100675.38;;;12.07;100.00
10720;BME280;5411;58.386;15.560;2022-10-31T04:11:16;100667.16;;;12.09;100.00
10720;BME280;5411;58.386;15.560;2022-10-31T04:13:46;100662.59;;;12.09;100.00
10720;BME280;5411;58.386;15.560;2022-10-31T04:16:16;100661.78;;;12.09;100.00
10720;BME280;5411;58.386;15.560;2022-10-31T04:18:44;100665.28;;;12.09;100.00
10720;BME280;5411;58.386;15.560;2022-10-31T04:21:14;100655.19;;;12.11;100.00
10720;BME280;5411;58.386;15.560;2022-10-31T04:23:42;100657.63;;;12.13;100.00
10720;BME280;5411;58.386;15.560;2022-10-31T04:26:12;100650.22;;;12.15;100.00
10720;BME280;5411;58.386;15.560;2022-10-31T04:28:40;100650.84;;;12.17;100.00
10720;BME280;5411;58.386;15.560;2022-10-31T04:31:09;100654.16;;;12.19;100.00
10720;BME280;5411;58.386;15.560;2022-10-31T04:33:38;100650.63;;;12.19;100.00
10720;BME280;5411;58.386;15.560;2022-10-31T04:36:07;100661.78;;;12.22;100.00
10720;BME280;5411;58.386;15.560;2022-10-31T04:38:36;100669.63;;;12.24;100.00
10720;BME280;5411;58.386;15.560;2022-10-31T04:41:04;100655.78;;;12.27;100.00
10720;BME280;5411;58.386;15.560;2022-10-31T04:43:33;100657.22;;;12.29;100.00
10720;BME280;5411;58.386;15.560;2022-10-31T04:46:01;100658.06;;;12.30;100.00
10720;BME280;5411;58.386;15.560;2022-10-31T04:48:29;100672.09;;;12.32;100.00
10720;BME280;5411;58.386;15.560;2022-10-31T04:51:00;100663.22;;;12.31;100.00
10720;BME280;5411;58.386;15.560;2022-10-31T04:53:29;100665.69;;;12.33;100.00
10720;BME280;5411;58.386;15.560;2022-10-31T04:56:00;100656.41;;;12.35;100.00
10720;BME280;5411;58.386;15.560;2022-10-31T04:58:28;100659.50;;;12.39;100.00
10720;BME280;5411;58.386;15.560;2022-10-31T05:00:56;100654.34;;;12.37;100.00
10720;BME280;5411;58.386;15.560;2022-10-31T05:03:25;100645.25;;;12.38;100.00
10720;BME280;5411;58.386;15.560;2022-10-31T05:05:53;100656.81;;;12.39;100.00
10720;BME280;5411;58.386;15.560;2022-10-31T05:08:31;100649.59;;;12.39;100.00
10720;BME280;5411;58.386;15.560;2022-10-31T05:11:11;100650.41;;;12.40;100.00
10720;BME280;5411;58.386;15.560;2022-10-31T05:13:39;100650.84;;;12.43;100.00
10720;BME280;5411;58.386;15.560;2022-10-31T05:16:07;100656.00;;;12.45;100.00
10720;BME280;5411;58.386;15.560;2022-10-31T05:18:35;100655.78;;;12.46;100.00
10720;BME280;5411;58.386;15.560;2022-10-31T05:21:04;100658.06;;;12.49;100.00
10720;BME280;5411;58.386;15.560;2022-10-31T05:23:43;100666.75;;;12.52;100.00
10720;BME280;5411;58.386;15.560;2022-10-31T05:26:16;100673.97;;;12.51;100.00
10720;BME280;5411;58.386;15.560;2022-10-31T05:28:45;100664.06;;;12.52;100.00
10720;BME280;5411;58.386;15.560;2022-10-31T05:31:13;100664.84;;;12.52;100.00
10720;BME280;5411;58.386;15.560;2022-10-31T05:33:41;100667.31;;;12.54;100.00
10720;BME280;5411;58.386;15.560;2022-10-31T05:36:09;100671.66;;;12.55;100.00
10720;BME280;5411;58.386;15.560;2022-10-31T05:38:37;100657.22;;;12.56;100.00
10720;BME280;5411;58.386;15.560;2022-10-31T05:41:05;100662.59;;;12.56;100.00
10720;BME280;5411;58.386;15.560;2022-10-31T05:43:35;100654.94;;;12.59;100.00
10720;BME280;5411;58.386;15.560;2022-10-31T05:46:03;100658.47;;;12.60;100.00
10720;BME280;5411;58.386;15.560;2022-10-31T05:48:32;100657.22;;;12.62;100.00
10720;BME280;5411;58.386;15.560;2022-10-31T05:51:01;100656.19;;;12.63;100.00
10720;BME280;5411;58.386;15.560;2022-10-31T05:53:29;100648.13;;;12.63;100.00
10720;BME280;5411;58.386;15.560;2022-10-31T05:55:57;100644.41;;;12.64;100.00
10720;BME280;5411;58.386;15.560;2022-10-31T05:58:25;100656.19;;;12.63;100.00
10720;BME280;5411;58.386;15.560;2022-10-31T06:00:54;100664.25;;;12.63;100.00
10720;BME280;5411;58.386;15.560;2022-10-31T06:03:23;100657.00;;;12.64;100.00
10720;BME280;5411;58.386;15.560;2022-10-31T06:05:51;100648.72;;;12.65;100.00
10720;BME280;5411;58.386;15.560;2022-10-31T06:08:21;100650.63;;;12.65;100.00
10720;BME280;5411;58.386;15.560;2022-10-31T06:10:49;100648.72;;;12.65;100.00
10720;BME280;5411;58.386;15.560;2022-10-31T06:13:17;100637.59;;;12.62;100.00
10720;BME280;5411;58.386;15.560;2022-10-31T06:15:46;100629.75;;;12.60;100.00
10720;BME280;5411;58.386;15.560;2022-10-31T06:18:15;100642.16;;;12.61;100.00
10720;BME280;5411;58.386;15.560;2022-10-31T06:20:44;100649.56;;;12.59;100.00
10720;BME280;5411;58.386;15.560;2022-10-31T06:23:12;100658.66;;;12.58;100.00
10720;BME280;5411;58.386;15.560;2022-10-31T06:25:48;100677.88;;;12.55;100.00
10720;BME280;5411;58.386;15.560;2022-10-31T06:28:17;100673.53;;;12.54;100.00
10720;BME280;5411;58.386;15.560;2022-10-31T06:30:45;100677.88;;;12.55;100.00
10720;BME280;5411;58.386;15.560;2022-10-31T06:33:13;100684.69;;;12.58;100.00
10720;BME280;5411;58.386;15.560;2022-10-31T06:35:46;100685.72;;;12.57;100.00
10720;BME280;5411;58.386;15.560;2022-10-31T06:38:14;100690.66;;;12.60;100.00
10720;BME280;5411;58.386;15.560;2022-10-31T06:40:42;100692.13;;;12.62;100.00
10720;BME280;5411;58.386;15.560;2022-10-31T06:43:10;100699.72;;;12.65;100.00
10720;BME280;5411;58.386;15.560;2022-10-31T06:45:39;100694.16;;;12.67;100.00
10720;BME280;5411;58.386;15.560;2022-10-31T06:48:07;100693.34;;;12.66;100.00
10720;BME280;5411;58.386;15.560;2022-10-31T06:50:43;100684.47;;;12.72;100.00
10720;BME280;5411;58.386;15.560;2022-10-31T06:53:13;100689.41;;;12.75;100.00
10720;BME280;5411;58.386;15.560;2022-10-31T06:55:41;100689.81;;;12.79;100.00
10720;BME280;5411;58.386;15.560;2022-10-31T06:58:10;100680.50;;;12.81;100.00
10720;BME280;5411;58.386;15.560;2022-10-31T07:00:39;100682.56;;;12.79;100.00
10720;BME280;5411;58.386;15.560;2022-10-31T07:03:09;100684.84;;;12.89;100.00
10720;BME280;5411;58.386;15.560;2022-10-31T07:05:38;100676.59;;;12.91;100.00
10720;BME280;5411;58.386;15.560;2022-10-31T07:08:08;100675.53;;;12.92;100.00
10720;BME280;5411;58.386;15.560;2022-10-31T07:10:39;100680.47;;;12.95;100.00
10720;BME280;5411;58.386;15.560;2022-10-31T07:13:10;100676.16;;;12.94;100.00
10720;BME280;5411;58.386;15.560;2022-10-31T07:15:40;100684.41;;;12.92;100.00
10720;BME280;5411;58.386;15.560;2022-10-31T07:18:10;100700.31;;;12.94;100.00
10720;BME280;5411;58.386;15.560;2022-10-31T07:20:39;100711.06;;;12.94;100.00
10720;BME280;5411;58.386;15.560;2022-10-31T07:23:08;100714.78;;;12.93;100.00
10720;BME280;5411;58.386;15.560;2022-10-31T07:25:40;100712.91;;;12.93;100.00
10720;BME280;5411;58.386;15.560;2022-10-31T07:28:09;100715.22;;;12.90;100.00
10720;BME280;5411;58.386;15.560;2022-10-31T07:30:37;100724.31;;;12.89;100.00
10720;BME280;5411;58.386;15.560;2022-10-31T07:33:06;100718.09;;;12.88;100.00
10720;BME280;5411;58.386;15.560;2022-10-31T07:35:34;100727.00;;;12.89;100.00
10720;BME280;5411;58.386;15.560;2022-10-31T07:38:09;100721.63;;;12.89;100.00
10720;BME280;5411;58.386;15.560;2022-10-31T07:40:37;100727.81;;;12.89;100.00
10720;BME280;5411;58.386;15.560;2022-10-31T07:43:07;100724.94;;;12.91;100.00
10720;BME280;5411;58.386;15.560;2022-10-31T07:45:40;100719.56;;;12.91;100.00
10720;BME280;5411;58.386;15.560;2022-10-31T07:48:08;100719.13;;;12.94;100.00
10720;BME280;5411;58.386;15.560;2022-10-31T07:50:39;100717.88;;;12.96;100.00
10720;BME280;5411;58.386;15.560;2022-10-31T07:53:08;100718.28;;;13.00;100.00
10720;BME280;5411;58.386;15.560;2022-10-31T07:55:37;100722.81;;;13.06;100.00
10720;BME280;5411;58.386;15.560;2022-10-31T07:58:08;100730.47;;;13.09;100.00
10720;BME280;5411;58.386;15.560;2022-10-31T08:00:37;100708.34;;;13.13;100.00
10720;BME280;5411;58.386;15.560;2022-10-31T08:03:07;100711.69;;;13.15;100.00
10720;BME280;5411;58.386;15.560;2022-10-31T08:05:38;100715.78;;;13.25;100.00
10720;BME280;5411;58.386;15.560;2022-10-31T08:08:08;100719.88;;;13.34;100.00
10720;BME280;5411;58.386;15.560;2022-10-31T08:10:36;100716.56;;;13.38;100.00
10720;BME280;5411;58.386;15.560;2022-10-31T08:13:07;100719.44;;;13.43;100.00
10720;BME280;5411;58.386;15.560;2022-10-31T08:15:35;100725.00;;;13.48;100.00
10720;BME280;5411;58.386;15.560;2022-10-31T08:18:06;100727.06;;;13.53;100.00
10720;BME280;5411;58.386;15.560;2022-10-31T08:20:38;100722.25;;;13.62;100.00
10720;BME280;5411;58.386;15.560;2022-10-31T08:23:06;100711.91;;;13.65;100.00
10720;BME280;5411;58.386;15.560;2022-10-31T08:25:34;100721.97;;;13.76;100.00
10720;BME280;5411;58.386;15.560;2022-10-31T08:28:08;100715.13;;;13.80;100.00
10720;BME280;5411;58.386;15.560;2022-10-31T08:30:45;100723.34;;;13.92;100.00
10720;BME280;5411;58.386;15.560;2022-10-31T08:33:15;100735.50;;;14.01;100.00
10720;BME280;5411;58.386;15.560;2022-10-31T08:35:43;100734.44;;;14.09;100.00
10720;BME280;5411;58.386;15.560;2022-10-31T08:38:12;100735.63;;;14.13;100.00
10720;BME280;5411;58.386;15.560;2022-10-31T08:40:40;100740.19;;;14.12;100.00
10720;BME280;5411;58.386;15.560;2022-10-31T08:43:11;100747.19;;;14.20;100.00
10720;BME280;5411;58.386;15.560;2022-10-31T08:45:41;100750.88;;;14.25;100.00
10720;BME280;5411;58.386;15.560;2022-10-31T08:48:11;100750.44;;;14.28;100.00
10720;BME280;5411;58.386;15.560;2022-10-31T08:50:40;100752.06;;;14.36;100.00
10720;BME280;5411;58.386;15.560;2022-10-31T08:53:11;100749.94;;;14.45;100.00
10720;BME280;5411;58.386;15.560;2022-10-31T08:55:41;100747.44;;;14.50;100.00
10720;BME280;5411;58.386;15.560;2022-10-31T08:58:13;100759.16;;;14.62;100.00
10720;BME280;5411;58.386;15.560;2022-10-31T09:00:43;100757.63;;;14.66;100.00
10720;BME280;5411;58.386;15.560;2022-10-31T09:03:13;100759.25;;;14.74;100.00
10720;BME280;5411;58.386;15.560;2022-10-31T09:05:42;100766.44;;;14.80;100.00
10720;BME280;5411;58.386;15.560;2022-10-31T09:08:10;100768.75;;;14.76;100.00
10720;BME280;5411;58.386;15.560;2022-10-31T09:10:43;100760.00;;;14.81;100.00
10720;BME280;5411;58.386;15.560;2022-10-31T09:13:14;100759.97;;;14.87;100.00
10720;BME280;5411;58.386;15.560;2022-10-31T09:15:44;100759.75;;;14.89;100.00
10720;BME280;5411;58.386;15.560;2022-10-31T09:18:13;100764.44;;;14.93;100.00
10720;BME280;5411;58.386;15.560;2022-10-31T09:20:46;100764.84;;;14.97;100.00
10720;BME280;5411;58.386;15.560;2022-10-31T09:23:16;100760.88;;;15.00;100.00
10720;BME280;5411;58.386;15.560;2022-10-31T09:25:45;100767.91;;;15.01;100.00
10720;BME280;5411;58.386;15.560;2022-10-31T09:28:20;100774.06;;;15.08;100.00
10720;BME280;5411;58.386;15.560;2022-10-31T09:30:51;100775.88;;;15.14;100.00
10720;BME280;5411;58.386;15.560;2022-10-31T09:33:20;100781.75;;;15.29;100.00
10720;BME280;5411;58.386;15.560;2022-10-31T09:35:48;100783.91;;;15.39;100.00
10720;BME280;5411;58.386;15.560;2022-10-31T09:38:18;100783.69;;;15.40;100.00
10720;BME280;5411;58.386;15.560;2022-10-31T09:40:50;100785.78;;;15.38;100.00
10720;BME280;5411;58.386;15.560;2022-10-31T09:43:25;100790.75;;;15.41;100.00
10720;BME280;5411;58.386;15.560;2022-10-31T09:46:07;100788.09;;;15.34;100.00
10720;BME280;5411;58.386;15.560;2022-10-31T09:48:44;100791.47;;;15.30;100.00
10720;BME280;5411;58.386;15.560;2022-10-31T09:51:18;100792.97;;;15.26;100.00
10720;BME280;5411;58.386;15.560;2022-10-31T09:53:50;100794.53;;;15.15;100.00
10720;BME280;5411;58.386;15.560;2022-10-31T09:56:21;100791.44;;;15.12;100.00
10720;BME280;5411;58.386;15.560;2022-10-31T09:58:53;100786.09;;;15.05;100.00
10720;BME280;5411;58.386;15.560;2022-10-31T10:01:33;100795.47;;;15.03;100.00
10720;BME280;5411;58.386;15.560;2022-10-31T10:04:09;100793.81;;;15.02;100.00
10720;BME280;5411;58.386;15.560;2022-10-31T10:06:47;100795.09;;;14.99;100.00
10720;BME280;5411;58.386;15.560;2022-10-31T10:09:18;100796.94;;;14.98;100.00
10720;BME280;5411;58.386;15.560;2022-10-31T10:11:57;100798.44;;;14.94;100.00
10720;BME280;5411;58.386;15.560;2022-10-31T10:14:38;100799.03;;;14.96;100.00
10720;BME280;5411;58.386;15.560;2022-10-31T10:17:36;100801.09;;;15.01;100.00
10720;BME280;5411;58.386;15.560;2022-10-31T10:20:30;100791.97;;;15.02;100.00
10720;BME280;5411;58.386;15.560;2022-10-31T10:23:15;100798.38;;;15.01;100.00
10720;BME280;5411;58.386;15.560;2022-10-31T10:25:48;100797.38;;;14.95;100.00
10720;BME280;5411;58.386;15.560;2022-10-31T10:28:25;100799.53;;;14.87;100.00
10720;BME280;5411;58.386;15.560;2022-10-31T10:30:59;100802.50;;;14.79;100.00
10720;BME280;5411;58.386;15.560;2022-10-31T10:33:35;100804.44;;;14.72;100.00
10720;BME280;5411;58.386;15.560;2022-10-31T10:36:08;100807.16;;;14.65;100.00
10720;BME280;5411;58.386;15.560;2022-10-31T10:38:45;100803.66;;;14.65;100.00
10720;BME280;5411;58.386;15.560;2022-10-31T10:41:17;100807.63;;;14.62;100.00
10720;BME280;5411;58.386;15.560;2022-10-31T10:43:48;100805.75;;;14.63;100.00
10720;BME280;5411;58.386;15.560;2022-10-31T10:46:21;100805.97;;;14.61;100.00
10720;BME280;5411;58.386;15.560;2022-10-31T10:49:16;100803.28;;;14.61;100.00
10720;BME280;5411;58.386;15.560;2022-10-31T10:51:47;100802.22;;;14.62;100.00
10720;BME280;5411;58.386;15.560;2022-10-31T10:54:43;100802.44;;;14.60;100.00
10720;BME280;5411;58.386;15.560;2022-10-31T10:57:30;100806.13;;;14.66;100.00
10720;BME280;5411;58.386;15.560;2022-10-31T11:00:03;100797.56;;;14.76;100.00
10720;BME280;5411;58.386;15.560;2022-10-31T11:02:37;100795.84;;;14.81;100.00
10720;BME280;5411;58.386;15.560;2022-10-31T11:05:18;100800.59;;;14.86;100.00
10720;BME280;5411;58.386;15.560;2022-10-31T11:08:03;100803.81;;;14.94;100.00
10720;BME280;5411;58.386;15.560;2022-10-31T11:10:31;100799.25;;;14.95;100.00
10720;BME280;5411;58.386;15.560;2022-10-31T11:13:06;100812.72;;;14.95;100.00
10720;BME280;5411;58.386;15.560;2022-10-31T11:15:37;100817.47;;;15.00;100.00
10720;BME280;5411;58.386;15.560;2022-10-31T11:18:19;100812.22;;;15.05;100.00
10720;BME280;5411;58.386;15.560;2022-10-31T11:20:54;100816.56;;;15.06;100.00
10720;BME280;5411;58.386;15.560;2022-10-31T11:23:25;100817.63;;;15.05;100.00
10720;BME280;5411;58.386;15.560;2022-10-31T11:25:56;100825.47;;;15.06;100.00
10720;BME280;5411;58.386;15.560;2022-10-31T11:28:25;100818.69;;;15.04;100.00
10720;BME280;5411;58.386;15.560;2022-10-31T11:30:57;100812.00;;;15.06;100.00
10720;BME280;5411;58.386;15.560;2022-10-31T11:33:31;100816.56;;;15.06;100.00
10720;BME280;5411;58.386;15.560;2022-10-31T11:36:01;100812.84;;;15.07;100.00
10720;BME280;5411;58.386;15.560;2022-10-31T11:38:34;100809.91;;;15.08;100.00
10720;BME280;5411;58.386;15.560;2022-10-31T11:41:10;100811.56;;;15.09;100.00
10720;BME280;5411;58.386;15.560;2022-10-31T11:43:40;100815.31;;;15.08;100.00
10720;BME280;5411;58.386;15.560;2022-10-31T11:46:17;100807.22;;;15.08;100.00
10720;BME280;5411;58.386;15.560;2022-10-31T11:48:50;100808.44;;;15.12;100.00
10720;BME280;5411;58.386;15.560;2022-10-31T11:51:21;100807.19;;;15.15;100.00
10720;BME280;5411;58.386;15.560;2022-10-31T11:53:52;100809.97;;;15.26;100.00
10720;BME280;5411;58.386;15.560;2022-10-31T11:56:27;100796.06;;;15.29;100.00
10720;BME280;5411;58.386;15.560;2022-10-31T11:59:06;100801.53;;;15.41;100.00
10720;BME280;5411;58.386;15.560;2022-10-31T12:01:47;100808.69;;;15.47;100.00
10720;BME280;5411;58.386;15.560;2022-10-31T12:04:17;100797.03;;;15.53;100.00
10720;BME280;5411;58.386;15.560;2022-10-31T12:06:46;100802.16;;;15.61;100.00
10720;BME280;5411;58.386;15.560;2022-10-31T12:09:20;100801.72;;;15.64;100.00
10720;BME280;5411;58.386;15.560;2022-10-31T12:12:00;100802.91;;;15.68;100.00
10720;BME280;5411;58.386;15.560;2022-10-31T12:14:36;100806.06;;;15.65;100.00
10720;BME280;5411;58.386;15.560;2022-10-31T12:17:14;100807.09;;;15.64;100.00
10720;BME280;5411;58.386;15.560;2022-10-31T12:19:53;100802.53;;;15.65;100.00
10720;BME280;5411;58.386;15.560;2022-10-31T12:22:33;100801.03;;;15.69;100.00
10720;BME280;5411;58.386;15.560;2022-10-31T12:25:24;100807.03;;;15.71;100.00
10720;BME280;5411;58.386;15.560;2022-10-31T12:28:04;100802.81;;;15.75;100.00
10720;BME280;5411;58.386;15.560;2022-10-31T12:30:49;100800.13;;;15.75;100.00
10720;BME280;5411;58.386;15.560;2022-10-31T12:33:33;100808.66;;;15.72;100.00
10720;BME280;5411;58.386;15.560;2022-10-31T12:39:32;100802.81;;;15.75;100.00
10720;BME280;5411;58.386;15.560;2022-10-31T12:42:11;100790.97;;;15.76;100.00
10720;BME280;5411;58.386;15.560;2022-10-31T12:44:59;100796.88;;;15.85;100.00
10720;BME280;5411;58.386;15.560;2022-10-31T12:47:50;100791.78;;;15.95;100.00
10720;BME280;5411;58.386;15.560;2022-10-31T12:50:28;100797.09;;;16.01;100.00
10720;BME280;5411;58.386;15.560;2022-10-31T12:53:15;100798.06;;;16.07;100.00
10720;BME280;5411;58.386;15.560;2022-10-31T12:55:54;100793.50;;;16.08;100.00
10720;BME280;5411;58.386;15.560;2022-10-31T12:58:26;100795.22;;;16.02;100.00
10720;BME280;5411;58.386;15.560;2022-10-31T13:01:06;100794.00;;;15.98;100.00
10720;BME280;5411;58.386;15.560;2022-10-31T13:03:45;100796.72;;;15.98;100.00
10720;BME280;5411;58.386;15.560;2022-10-31T13:06:17;100792.41;;;15.97;100.00
10720;BME280;5411;58.386;15.560;2022-10-31T13:08:51;100792.63;;;15.95;100.00
10720;BME280;5411;58.386;15.560;2022-10-31T13:11:23;100785.34;;;15.96;100.00
10720;BME280;5411;58.386;15.560;2022-10-31T13:14:01;100791.78;;;15.95;100.00
10720;BME280;5411;58.386;15.560;2022-10-31T13:16:34;100785.63;;;15.88;100.00
10720;BME280;5411;58.386;15.560;2022-10-31T13:19:09;100780.34;;;15.81;100.00